首页
METAR-TAF:

METAR-TAF

机场 :

Waukesha County Airport (Crites Field)

Waukesha, 威斯康辛州, 美国

纬度: 43-02-28N, 经度: 088-14-13W, 海拔: 278米

当前天气观测

该预报发布于1小时和7分钟前的19:45 UTC
风速15节,风向西
温度 21°C
湿度 46%
气压 1016 hPa
能見度: 16.1公里
散云层高于5500英尺

METAR: KUES 231945Z 28015KT 10SM SCT055 21/09 A2999

时间: 15:52 (20:52 UTC)

预报

该预报发布于30分钟前的20:22 UTC
预报有效从23日的 20点(UTC)到 24日的 18点(UTC)
风速11节,风向西转西北,有时为19节阵风
能見度: 10公里
散云层高于5000英尺
从 23日的 2300点(UTC)
风速8节,风向西转西北
能見度: 10公里
少量云层高于5000英尺
从 24日的 0100点(UTC)
风速5节,风向西转西南
能見度: 10公里
天空无云
从 24日的 1500点(UTC)
风速7节,风向西南
能見度: 10公里
散云层高于4000英尺
散云层高于15000英尺
从 24日的 1730点(UTC)
风速12节,风向西南,有时为20节阵风
能見度: 10公里
散云层高于4000英尺
多云层高于25000英尺

TAF: KUES 232022Z 2320/2418 29011G19KT P6SM SCT050 FM232300 29008KT P6SM FEW050 FM240100 25005KT P6SM SKC FM241500 23007KT P6SM SCT040 SCT150 FM241730 22012G20KT P6SM SCT040 BKN250

超过4000个机场的气象观测和天气预报(METAR&TAF报告)。

可查询的气象台以黄色和红色小点在地图上表示。

将鼠标移到小点上方,可查看气象台名称。

然后点击查看天气观测和预报。

如需切换地图:点击带黑十字的绿色按钮放大地图;点击带横线的绿色按钮缩小地图;或者点击绿色箭头查看邻近地区的地图。


METAR-TAF: